createdAt,value
2018-12-20T00:01:28.776Z,112.10
2018-12-20T00:03:57.793Z,105.83
2018-12-20T00:06:26.970Z,108.37
2018-12-20T00:08:55.980Z,101.37
2018-12-20T00:11:24.808Z,101.60
2018-12-20T00:13:54.141Z,97.77
2018-12-20T00:16:22.967Z,95.63
2018-12-20T00:18:52.316Z,89.60
2018-12-20T00:21:21.292Z,81.80
2018-12-20T00:23:50.279Z,69.20
2018-12-20T00:26:19.141Z,77.60
2018-12-20T00:28:48.280Z,75.10
2018-12-20T00:31:17.108Z,82.20
2018-12-20T00:33:46.019Z,76.50
2018-12-20T00:36:15.345Z,72.87
2018-12-20T00:38:44.412Z,70.67
2018-12-20T00:41:13.427Z,75.47
2018-12-20T00:43:42.425Z,82.73
2018-12-20T00:46:11.460Z,71.47
2018-12-20T00:48:40.399Z,78.93
2018-12-20T00:51:09.416Z,77.73
2018-12-20T00:53:38.441Z,71.33
2018-12-20T00:56:07.424Z,91.87
2018-12-20T00:58:36.556Z,81.03
2018-12-20T01:01:05.715Z,90.73
2018-12-20T01:03:34.945Z,92.33
2018-12-20T01:06:03.905Z,81.67
2018-12-20T01:08:32.936Z,75.73
2018-12-20T01:11:02.264Z,77.10
2018-12-20T01:13:31.504Z,70.73
2018-12-20T01:16:00.506Z,67.73
2018-12-20T01:18:29.723Z,65.33
2018-12-20T01:20:58.747Z,63.40
2018-12-20T01:26:06.846Z,69.97
2018-12-20T01:28:35.873Z,69.53
2018-12-20T01:31:04.799Z,59.73
2018-12-20T01:33:33.613Z,59.97
2018-12-20T01:36:02.820Z,63.17
2018-12-20T01:38:32.125Z,54.70
2018-12-20T01:41:01.013Z,49.47
2018-12-20T01:43:29.933Z,51.73
2018-12-20T01:45:59.018Z,47.00
2018-12-20T01:48:29.058Z,56.67
2018-12-20T01:50:58.330Z,53.80
2018-12-20T01:53:27.401Z,51.23
2018-12-20T01:55:56.452Z,39.47
2018-12-20T01:58:25.567Z,43.67
2018-12-20T02:00:54.553Z,37.70
2018-12-20T02:03:23.804Z,41.47
2018-12-20T02:05:52.826Z,37.90
2018-12-20T02:08:21.800Z,41.70
2018-12-20T02:10:50.843Z,31.77
2018-12-20T02:13:19.981Z,33.73
2018-12-20T02:15:49.124Z,33.77
2018-12-20T02:18:18.330Z,35.73
2018-12-20T02:20:47.357Z,35.80
2018-12-20T02:23:16.193Z,38.63
2018-12-20T02:25:45.241Z,45.53
2018-12-20T02:28:14.400Z,42.40
2018-12-20T02:30:43.509Z,39.23
2018-12-20T02:33:12.327Z,37.80
2018-12-20T02:35:41.304Z,39.57
2018-12-20T02:38:10.600Z,41.33
2018-12-20T02:40:39.627Z,39.83
2018-12-20T02:43:08.588Z,39.67
2018-12-20T02:45:37.488Z,37.83
2018-12-20T02:48:06.601Z,41.33
2018-12-20T02:50:35.665Z,44.80
2018-12-20T02:53:04.713Z,41.60
2018-12-20T02:55:33.732Z,39.57
2018-12-20T02:58:02.555Z,53.60
2018-12-20T03:00:31.504Z,38.77
2018-12-20T03:03:00.648Z,37.23
2018-12-20T03:05:29.469Z,40.23
2018-12-20T03:07:58.576Z,41.27
2018-12-20T03:10:27.423Z,43.17
2018-12-20T03:12:56.683Z,40.23
2018-12-20T03:15:25.613Z,34.83
2018-12-20T03:17:54.946Z,43.17
2018-12-20T03:20:24.322Z,38.57
2018-12-20T03:22:53.332Z,43.57
2018-12-20T03:25:22.361Z,54.03
2018-12-20T03:27:51.591Z,42.53
2018-12-20T03:30:20.735Z,45.40
2018-12-20T03:32:49.916Z,48.40
2018-12-20T03:35:18.856Z,41.67
2018-12-20T03:37:47.894Z,42.50
2018-12-20T03:40:16.921Z,40.90
2018-12-20T03:42:46.017Z,46.67
2018-12-20T03:45:14.992Z,47.03
2018-12-20T03:47:44.242Z,47.03
2018-12-20T03:50:13.233Z,47.00
2018-12-20T03:52:42.448Z,45.97
2018-12-20T03:55:11.758Z,48.00
2018-12-20T03:57:40.684Z,47.67
2018-12-20T04:00:09.934Z,37.37
2018-12-20T04:02:38.968Z,44.30
2018-12-20T04:05:08.350Z,47.43
2018-12-20T04:07:38.207Z,45.17
2018-12-20T04:10:07.566Z,47.73
2018-12-20T04:12:36.960Z,50.83
2018-12-20T04:15:06.154Z,46.27
2018-12-20T04:17:35.329Z,52.90
2018-12-20T04:20:04.767Z,43.77
2018-12-20T04:22:33.866Z,48.43
2018-12-20T04:25:02.756Z,45.47
2018-12-20T04:27:31.998Z,40.00
2018-12-20T04:30:01.588Z,38.23
2018-12-20T04:32:30.708Z,40.13
2018-12-20T04:34:59.611Z,41.73
2018-12-20T04:37:28.562Z,38.63
2018-12-20T04:39:57.459Z,42.57
2018-12-20T04:42:26.498Z,44.20
2018-12-20T04:44:55.393Z,40.03
2018-12-20T04:47:24.305Z,49.40
2018-12-20T04:49:53.220Z,54.50
2018-12-20T04:52:22.168Z,48.23
2018-12-20T04:54:51.266Z,50.13
2018-12-20T04:57:20.310Z,42.20
2018-12-20T04:59:49.557Z,40.57
2018-12-20T05:02:18.766Z,44.67
2018-12-20T05:04:47.748Z,37.40
2018-12-20T05:07:17.077Z,37.87
2018-12-20T05:09:46.272Z,47.73
2018-12-20T05:12:15.326Z,48.03
2018-12-20T05:14:44.322Z,43.30
2018-12-20T05:17:13.472Z,42.47
2018-12-20T05:19:42.355Z,49.60
2018-12-20T05:22:11.641Z,43.43
2018-12-20T05:24:40.601Z,53.40
2018-12-20T05:27:09.637Z,48.43
2018-12-20T05:29:38.604Z,46.20
2018-12-20T05:32:07.410Z,51.43
2018-12-20T05:34:36.316Z,47.73
2018-12-20T05:37:05.146Z,50.40
2018-12-20T05:39:34.183Z,53.87
2018-12-20T05:42:03.123Z,73.47
2018-12-20T05:44:32.238Z,70.47
2018-12-20T05:47:01.299Z,82.90
2018-12-20T05:49:30.256Z,86.80
2018-12-20T05:51:59.200Z,103.13
2018-12-20T05:54:28.168Z,88.97
2018-12-20T05:56:57.210Z,89.70
2018-12-20T05:59:26.297Z,182.13
2018-12-20T06:01:55.257Z,155.20
2018-12-20T06:04:24.219Z,157.67
2018-12-20T06:06:53.336Z,154.13
2018-12-20T06:09:22.909Z,126.10
2018-12-20T06:11:51.838Z,166.53
2018-12-20T06:14:20.840Z,107.73
2018-12-20T06:16:49.937Z,189.10
2018-12-20T06:19:18.963Z,116.00
2018-12-20T06:21:47.966Z,106.30
2018-12-20T06:24:16.997Z,89.20
2018-12-20T06:26:46.028Z,87.20
2018-12-20T06:29:14.988Z,122.10
2018-12-20T06:31:43.944Z,136.10
2018-12-20T06:34:12.850Z,150.20
2018-12-20T06:36:41.803Z,138.43
2018-12-20T06:39:10.612Z,133.93
2018-12-20T06:41:43.336Z,113.97
2018-12-20T06:44:12.489Z,99.17
2018-12-20T06:46:46.909Z,87.43
2018-12-20T06:49:15.942Z,84.07
2018-12-20T06:51:44.976Z,96.87
2018-12-20T06:54:13.898Z,95.13
2018-12-20T06:56:42.870Z,102.80
2018-12-20T06:59:11.733Z,115.13
2018-12-20T07:01:40.559Z,109.57
2018-12-20T07:04:09.480Z,94.43
2018-12-20T07:06:38.409Z,85.93
2018-12-20T07:09:09.164Z,71.70
2018-12-20T07:11:38.442Z,67.23
2018-12-20T07:14:07.363Z,67.03
2018-12-20T07:16:36.387Z,62.00
2018-12-20T07:19:05.429Z,71.97
2018-12-20T07:21:34.477Z,67.90
2018-12-20T07:24:03.421Z,64.67
2018-12-20T07:26:32.329Z,79.03
2018-12-20T07:29:01.281Z,82.20
2018-12-20T07:31:30.101Z,61.57
2018-12-20T07:33:59.042Z,59.33
2018-12-20T07:36:27.950Z,59.13
2018-12-20T07:38:56.865Z,55.77
2018-12-20T07:41:25.705Z,55.93
2018-12-20T07:43:54.666Z,61.70
2018-12-20T07:46:23.521Z,57.93
2018-12-20T07:48:52.445Z,58.80
2018-12-20T07:51:21.448Z,66.40
2018-12-20T07:53:50.253Z,62.87
2018-12-20T07:56:19.173Z,70.43
2018-12-20T07:58:48.103Z,65.70
2018-12-20T08:01:17.052Z,65.77
2018-12-20T08:03:46.013Z,71.67
2018-12-20T08:06:14.832Z,65.53
2018-12-20T08:08:43.847Z,71.90
2018-12-20T08:11:12.692Z,73.70
2018-12-20T08:13:41.516Z,75.93
2018-12-20T08:16:10.412Z,74.20
2018-12-20T08:18:39.657Z,94.10
2018-12-20T08:21:08.673Z,114.43
2018-12-20T08:23:37.498Z,104.53
2018-12-20T08:26:06.413Z,89.77
2018-12-20T08:28:35.335Z,86.40
2018-12-20T08:31:04.260Z,82.70
2018-12-20T08:33:33.189Z,96.97
2018-12-20T08:36:02.205Z,104.10
2018-12-20T08:38:31.120Z,97.77
2018-12-20T08:40:59.945Z,102.20
2018-12-20T08:43:28.803Z,94.27
2018-12-20T08:45:57.722Z,105.60
2018-12-20T08:48:26.632Z,112.77
2018-12-20T08:50:55.691Z,118.87
2018-12-20T08:53:24.591Z,125.23
2018-12-20T08:55:53.408Z,116.40
2018-12-20T08:58:22.337Z,125.63
2018-12-20T09:00:51.250Z,123.40
2018-12-20T09:03:20.100Z,108.03
2018-12-20T09:05:49.025Z,108.70
2018-12-20T09:08:18.458Z,91.37
2018-12-20T09:10:47.400Z,101.90
2018-12-20T09:13:16.289Z,117.00
2018-12-20T09:15:45.440Z,83.47
2018-12-20T09:18:14.476Z,77.83
2018-12-20T09:20:43.397Z,70.57
2018-12-20T09:23:12.237Z,87.03
2018-12-20T09:25:41.097Z,77.17
2018-12-20T09:28:09.927Z,67.70
2018-12-20T09:30:38.728Z,74.40
2018-12-20T09:33:08.259Z,80.33
2018-12-20T09:35:37.081Z,65.37
2018-12-20T09:38:06.005Z,47.47
2018-12-20T09:40:34.924Z,265.03
2018-12-20T09:43:04.002Z,77.33
2018-12-20T09:45:32.835Z,58.20
2018-12-20T09:48:05.966Z,48.00
2018-12-20T09:50:35.072Z,44.50
2018-12-20T09:53:04.417Z,36.87
2018-12-20T09:55:33.330Z,54.47
2018-12-20T09:58:02.343Z,37.47
2018-12-20T10:00:31.309Z,41.23
2018-12-20T10:03:00.224Z,45.03
2018-12-20T10:05:29.065Z,50.50
2018-12-20T10:07:58.109Z,43.90
2018-12-20T10:10:26.901Z,42.03
2018-12-20T10:12:55.721Z,42.80
2018-12-20T10:15:24.721Z,44.97
2018-12-20T10:17:53.790Z,57.63
2018-12-20T10:20:22.690Z,56.77
2018-12-20T10:22:51.989Z,51.43
2018-12-20T10:25:20.814Z,50.73
2018-12-20T10:27:49.740Z,54.80
2018-12-20T10:30:18.559Z,52.40
2018-12-20T10:32:47.489Z,54.23
2018-12-20T10:35:16.473Z,47.93
2018-12-20T10:37:45.305Z,38.20
2018-12-20T10:40:14.109Z,38.63
2018-12-20T10:42:43.053Z,37.73
2018-12-20T10:45:12.013Z,40.40
2018-12-20T10:47:41.057Z,34.03
2018-12-20T10:50:10.395Z,36.47
2018-12-20T10:52:39.332Z,39.83
2018-12-20T10:55:08.309Z,38.23
2018-12-20T10:57:37.281Z,41.03
2018-12-20T11:00:07.457Z,40.00
2018-12-20T11:02:42.044Z,37.13
2018-12-20T11:05:16.644Z,40.97
2018-12-20T11:07:51.206Z,44.77
2018-12-20T11:10:26.453Z,63.00
2018-12-20T11:12:55.564Z,49.77
2018-12-20T11:15:24.632Z,44.00
2018-12-20T11:17:53.551Z,40.27
2018-12-20T11:20:22.608Z,41.90
2018-12-20T11:22:51.709Z,43.43
2018-12-20T11:25:20.612Z,45.37
2018-12-20T11:27:49.430Z,45.10
2018-12-20T11:30:18.245Z,43.77
2018-12-20T11:32:47.168Z,72.40
2018-12-20T11:35:16.176Z,74.53
2018-12-20T11:37:45.108Z,75.20
2018-12-20T11:40:13.995Z,79.40
2018-12-20T11:42:42.841Z,83.57
2018-12-20T11:45:11.868Z,75.60
2018-12-20T11:47:45.896Z,80.70
2018-12-20T11:50:15.335Z,84.37
2018-12-20T11:52:44.361Z,83.97
2018-12-20T11:55:13.416Z,87.90
2018-12-20T11:57:42.367Z,85.20
2018-12-20T12:00:11.444Z,79.80
2018-12-20T12:02:40.444Z,82.20
2018-12-20T12:05:09.340Z,86.73
2018-12-20T12:07:38.396Z,84.53
2018-12-20T12:10:08.008Z,87.63
2018-12-20T12:12:37.042Z,92.07
2018-12-20T12:15:06.818Z,88.97
2018-12-20T12:17:35.790Z,92.13
2018-12-20T12:20:05.689Z,90.57
2018-12-20T12:22:34.743Z,81.97
2018-12-20T12:25:04.133Z,89.43
2018-12-20T12:27:33.204Z,94.80
2018-12-20T12:30:02.712Z,106.53
2018-12-20T12:32:31.949Z,94.40
2018-12-20T12:35:00.897Z,93.40
2018-12-20T12:37:29.855Z,104.77
2018-12-20T12:39:59.013Z,106.40
2018-12-20T12:42:27.946Z,114.20
2018-12-20T12:44:56.892Z,100.90
2018-12-20T12:47:31.306Z,105.70
2018-12-20T12:50:00.442Z,115.33
2018-12-20T12:52:29.396Z,96.37
2018-12-20T12:54:58.485Z,110.97
2018-12-20T12:57:27.382Z,94.60
2018-12-20T12:59:56.386Z,101.17
2018-12-20T13:02:25.430Z,94.57
2018-12-20T13:04:54.385Z,95.17
2018-12-20T13:07:23.346Z,89.80
2018-12-20T13:09:52.910Z,103.97
2018-12-20T13:12:21.986Z,109.27
2018-12-20T13:14:51.258Z,102.97
2018-12-20T13:17:20.316Z,105.07
2018-12-20T13:19:49.482Z,105.63
2018-12-20T13:22:18.717Z,102.30
2018-12-20T13:24:48.349Z,115.77
2018-12-20T13:27:17.371Z,113.43
2018-12-20T13:29:46.525Z,114.30
2018-12-20T13:32:15.481Z,104.03
2018-12-20T13:34:44.606Z,103.00
2018-12-20T13:37:15.920Z,103.73
2018-12-20T13:39:44.668Z,91.50
2018-12-20T13:42:13.726Z,88.27
2018-12-20T13:44:42.805Z,79.33
2018-12-20T13:47:11.865Z,81.37
2018-12-20T13:49:41.233Z,73.13
2018-12-20T13:52:10.252Z,81.63
2018-12-20T13:54:39.703Z,80.47
2018-12-20T13:57:08.956Z,70.63
2018-12-20T13:59:38.306Z,77.30
2018-12-20T14:02:07.605Z,77.37
2018-12-20T14:04:36.670Z,90.07
2018-12-20T14:07:05.857Z,83.97
2018-12-20T14:09:35.181Z,77.07
2018-12-20T14:12:04.558Z,87.37
2018-12-20T14:14:34.310Z,85.07
2018-12-20T14:17:03.311Z,84.60
2018-12-20T14:19:32.709Z,85.77
2018-12-20T14:22:02.456Z,84.13
2018-12-20T14:24:31.885Z,87.03
2018-12-20T14:27:00.912Z,93.17
2018-12-20T14:29:30.205Z,89.97
2018-12-20T14:31:59.258Z,96.60
2018-12-20T14:34:28.409Z,97.67
2018-12-20T14:36:57.396Z,92.00
2018-12-20T14:39:26.445Z,101.20
2018-12-20T14:41:56.147Z,111.53
2018-12-20T14:44:25.084Z,97.83
2018-12-20T14:46:54.325Z,92.10
2018-12-20T14:49:23.310Z,92.33
2018-12-20T14:51:52.312Z,91.00
2018-12-20T14:54:21.772Z,86.57
2018-12-20T14:56:51.277Z,81.50
2018-12-20T14:59:20.353Z,87.90
2018-12-20T15:01:49.512Z,90.57
2018-12-20T15:04:19.257Z,96.57
2018-12-20T15:06:48.708Z,94.17
2018-12-20T15:09:17.702Z,88.90
2018-12-20T15:11:47.672Z,91.87
2018-12-20T15:14:16.836Z,93.63
2018-12-20T15:16:45.823Z,89.63
2018-12-20T15:19:14.773Z,91.80
2018-12-20T15:21:43.993Z,88.60
2018-12-20T15:24:13.246Z,86.07
2018-12-20T15:26:44.463Z,83.30
2018-12-20T15:29:14.633Z,102.57
2018-12-20T15:31:53.064Z,109.43
2018-12-20T15:34:16.163Z,121.73
2018-12-20T15:36:45.916Z,103.60
2018-12-20T15:39:15.297Z,107.63
2018-12-20T15:41:44.258Z,101.63
2018-12-20T15:44:13.217Z,108.67
2018-12-20T15:46:42.154Z,97.73
2018-12-20T15:49:11.353Z,105.63
2018-12-20T15:51:40.313Z,98.67
2018-12-20T15:54:09.803Z,97.37
2018-12-20T15:56:38.989Z,103.17
2018-12-20T15:59:08.256Z,98.60
2018-12-20T16:01:38.040Z,94.53
2018-12-20T16:04:07.013Z,113.20
2018-12-20T16:06:36.061Z,108.57
2018-12-20T16:09:06.998Z,102.70
2018-12-20T16:11:36.236Z,104.20
2018-12-20T16:14:16.711Z,100.30
2018-12-20T16:16:45.965Z,119.50
2018-12-20T16:19:14.919Z,117.27
2018-12-20T16:21:43.889Z,123.43
2018-12-20T16:24:13.496Z,114.17
2018-12-20T16:26:42.445Z,122.67
2018-12-20T16:29:11.689Z,113.17
2018-12-20T16:31:41.537Z,118.63
2018-12-20T16:34:10.667Z,114.67
2018-12-20T16:36:40.016Z,107.80
2018-12-20T16:39:09.384Z,120.23
2018-12-20T16:41:38.445Z,120.87
2018-12-20T16:44:07.410Z,133.50
2018-12-20T16:46:36.496Z,126.57
2018-12-20T16:49:13.398Z,117.90
2018-12-20T16:51:36.929Z,131.13
2018-12-20T16:54:06.597Z,124.77
2018-12-20T16:56:35.764Z,119.53
2018-12-20T16:59:04.973Z,110.53
2018-12-20T17:01:34.160Z,121.27
2018-12-20T17:04:03.733Z,146.40
2018-12-20T17:06:32.577Z,150.30
2018-12-20T17:09:02.516Z,138.17
2018-12-20T17:11:31.675Z,149.73
2018-12-20T17:14:00.643Z,146.17
2018-12-20T17:16:29.581Z,125.80
2018-12-20T17:18:58.730Z,133.67
2018-12-20T17:21:27.873Z,136.40
2018-12-20T17:23:56.734Z,147.33
2018-12-20T17:26:25.799Z,142.00
2018-12-20T17:28:54.787Z,145.73
2018-12-20T17:31:23.772Z,144.97
2018-12-20T17:33:53.312Z,133.60
2018-12-20T17:36:22.273Z,149.97
2018-12-20T17:38:51.232Z,147.47
2018-12-20T17:41:20.481Z,146.30
2018-12-20T17:43:49.541Z,142.40
2018-12-20T17:46:18.632Z,137.17
2018-12-20T17:48:47.584Z,145.63
2018-12-20T17:51:16.519Z,142.37
2018-12-20T17:53:45.592Z,132.80
2018-12-20T17:56:17.521Z,138.97
2018-12-20T17:58:46.492Z,130.83
2018-12-20T18:01:15.391Z,142.77
2018-12-20T18:03:44.484Z,137.27
2018-12-20T18:06:13.678Z,139.20
2018-12-20T18:08:43.091Z,142.93
2018-12-20T18:11:12.475Z,147.30
2018-12-20T18:13:41.468Z,143.27
2018-12-20T18:16:10.855Z,141.03
2018-12-20T18:18:39.855Z,131.43
2018-12-20T18:21:08.722Z,128.47
2018-12-20T18:23:37.834Z,129.93
2018-12-20T18:26:06.844Z,137.53
2018-12-20T18:28:35.852Z,139.97
2018-12-20T18:31:04.807Z,137.10
2018-12-20T18:33:33.952Z,157.10
2018-12-20T18:36:03.053Z,182.90
2018-12-20T18:38:32.345Z,179.37
2018-12-20T18:41:01.403Z,153.30
2018-12-20T18:43:30.357Z,146.53
2018-12-20T18:45:59.749Z,145.63
2018-12-20T18:48:28.957Z,146.43
2018-12-20T18:50:57.834Z,140.47
2018-12-20T18:53:27.064Z,139.43
2018-12-20T18:55:56.016Z,142.77
2018-12-20T18:58:24.852Z,144.93
2018-12-20T19:00:53.784Z,131.50
2018-12-20T19:03:23.078Z,151.17
2018-12-20T19:05:51.931Z,141.97
2018-12-20T19:08:21.042Z,159.83
2018-12-20T19:10:50.110Z,164.77
2018-12-20T19:13:19.273Z,175.00
2018-12-20T19:15:48.336Z,158.60
2018-12-20T19:18:17.702Z,154.20
2018-12-20T19:20:46.745Z,140.00
2018-12-20T19:23:15.605Z,154.97
2018-12-20T19:25:44.682Z,158.93
2018-12-20T19:28:13.837Z,152.90
2018-12-20T19:30:42.893Z,164.00
2018-12-20T19:33:11.834Z,157.40
2018-12-20T19:35:40.809Z,139.70
2018-12-20T19:38:09.877Z,141.20
2018-12-20T19:40:39.074Z,146.53
2018-12-20T19:43:08.146Z,161.87
2018-12-20T19:45:45.803Z,151.20
2018-12-20T19:48:08.100Z,153.43
2018-12-20T19:50:37.571Z,161.40
2018-12-20T19:53:06.530Z,162.40
2018-12-20T19:55:35.485Z,159.47
2018-12-20T19:58:04.760Z,143.10
2018-12-20T20:00:34.513Z,151.97
2018-12-20T20:03:03.497Z,166.67
2018-12-20T20:05:32.589Z,148.53
2018-12-20T20:08:01.568Z,165.63
2018-12-20T20:10:30.528Z,147.10
2018-12-20T20:12:59.582Z,149.13
2018-12-20T20:15:29.272Z,141.97
2018-12-20T20:17:58.625Z,150.13
2018-12-20T20:20:27.865Z,139.30
2018-12-20T20:22:56.843Z,118.40
2018-12-20T20:25:25.900Z,123.13
2018-12-20T20:27:54.960Z,116.53
2018-12-20T20:30:24.016Z,107.07
2018-12-20T20:32:53.310Z,114.50
2018-12-20T20:35:22.247Z,122.43
2018-12-20T20:37:51.212Z,127.50
2018-12-20T20:40:20.272Z,111.63
2018-12-20T20:42:49.221Z,115.40
2018-12-20T20:45:18.084Z,110.10
2018-12-20T20:47:47.050Z,109.33
2018-12-20T20:50:22.409Z,120.53
2018-12-20T20:52:47.246Z,116.93
2018-12-20T20:55:16.175Z,121.07
2018-12-20T20:57:45.117Z,108.87
2018-12-20T21:00:14.090Z,131.23
2018-12-20T21:02:43.232Z,122.67
2018-12-20T21:05:12.485Z,126.23
2018-12-20T21:07:41.776Z,120.63
2018-12-20T21:10:11.819Z,131.77
2018-12-20T21:12:40.677Z,121.37
2018-12-20T21:15:11.145Z,130.47
2018-12-20T21:17:40.188Z,121.17
2018-12-20T21:20:11.277Z,116.73
2018-12-20T21:22:40.645Z,132.17
2018-12-20T21:25:09.627Z,130.63
2018-12-20T21:27:38.485Z,116.00
2018-12-20T21:30:09.066Z,122.77
2018-12-20T21:32:37.909Z,116.87
2018-12-20T21:35:07.766Z,112.33
2018-12-20T21:37:36.640Z,110.37
2018-12-20T21:40:06.486Z,130.70
2018-12-20T21:42:35.634Z,115.07
2018-12-20T21:45:05.995Z,126.40
2018-12-20T21:47:34.837Z,106.60
2018-12-20T21:50:04.789Z,112.13
2018-12-20T21:52:33.764Z,111.30
2018-12-20T21:55:02.896Z,103.17
2018-12-20T21:57:31.836Z,98.57
2018-12-20T22:00:01.423Z,100.13
2018-12-20T22:02:30.995Z,88.27
2018-12-20T22:04:59.962Z,93.13
2018-12-20T22:07:29.008Z,90.57
2018-12-20T22:09:57.935Z,89.93
2018-12-20T22:12:26.872Z,75.53
2018-12-20T22:14:55.724Z,80.03
2018-12-20T22:17:24.668Z,82.47
2018-12-20T22:19:58.618Z,76.23
2018-12-20T22:22:24.603Z,82.03
2018-12-20T22:24:53.603Z,74.90
2018-12-20T22:27:23.158Z,82.00
2018-12-20T22:29:52.111Z,81.93
2018-12-20T22:32:20.977Z,76.03
2018-12-20T22:34:49.826Z,86.13
2018-12-20T22:37:18.761Z,89.83
2018-12-20T22:39:47.592Z,78.93
2018-12-20T22:42:17.141Z,81.17
2018-12-20T22:44:45.984Z,86.77
2018-12-20T22:47:14.937Z,81.77
2018-12-20T22:49:43.920Z,90.93
2018-12-20T22:52:12.885Z,93.77
2018-12-20T22:54:41.757Z,86.90
2018-12-20T22:57:10.693Z,99.37
2018-12-20T22:59:39.624Z,93.60
2018-12-20T23:02:08.601Z,104.33
2018-12-20T23:04:37.721Z,102.57
2018-12-20T23:07:06.802Z,90.27
2018-12-20T23:09:35.949Z,93.10
2018-12-20T23:12:04.905Z,99.57
2018-12-20T23:14:33.925Z,100.83
2018-12-20T23:17:02.965Z,98.93
2018-12-20T23:19:31.902Z,86.33
2018-12-20T23:22:00.822Z,96.73
2018-12-20T23:24:29.781Z,106.90
2018-12-20T23:26:58.636Z,96.47
2018-12-20T23:29:27.585Z,114.17
2018-12-20T23:31:56.441Z,107.13
2018-12-20T23:34:25.490Z,101.03
2018-12-20T23:36:54.450Z,102.90
2018-12-20T23:39:23.409Z,96.63
2018-12-20T23:41:52.367Z,99.33
2018-12-20T23:44:21.297Z,95.97
2018-12-20T23:46:50.245Z,94.70
2018-12-20T23:49:19.188Z,77.77
2018-12-20T23:51:48.149Z,90.37
2018-12-20T23:54:17.214Z,75.90
2018-12-20T23:56:46.053Z,81.60
2018-12-20T23:59:14.983Z,80.77
